Time;durP1;ratioP1;P1;durP2;ratioP2;P2;SDS_P1;SDS_P2;PMS_P1;PMS_P2;Temp;Humidity;BMP_temperature;BMP_pressure;BME280_temperature;BME280_humidity;BME280_pressure;Samples;Min_cycle;Max_cycle;Signal;HPM_P1;HPM_P2
2023/06/15 00:02:21;;;;;;;13.00;2.60;;;21.70;69.30;;;;;;5052848;28;20055;-32
2023/06/15 00:04:48;;;;;;;6.70;2.70;;;21.30;64.60;;;;;;5046662;28;20053;-32
2023/06/15 00:07:14;;;;;;;5.13;2.60;;;20.50;68.90;;;;;;5032672;28;20049;-33
2023/06/15 00:09:41;;;;;;;3.65;2.38;;;20.40;69.20;;;;;;5033002;28;20558;-33
2023/06/15 00:12:10;;;;;;;3.92;2.30;;;21.50;59.10;;;;;;5032589;28;20128;-32
2023/06/15 00:14:37;;;;;;;3.08;2.35;;;20.90;69.90;;;;;;5032836;28;20051;-32
2023/06/15 00:17:04;;;;;;;4.22;2.25;;;;;;;;;;5035492;28;20643;-31
2023/06/15 00:19:31;;;;;;;4.28;2.20;;;21.10;69.50;;;;;;5052492;28;20131;-32
2023/06/15 00:21:58;;;;;;;3.50;2.25;;;20.70;69.10;;;;;;5052402;28;20055;-32
2023/06/15 00:24:25;;;;;;;3.70;2.30;;;20.00;68.70;;;;;;5052302;28;20049;-32
2023/06/15 00:26:52;;;;;;;5.13;2.20;;;20.80;69.50;;;;;;5052122;28;20577;-32
2023/06/15 00:29:20;;;;;;;3.70;2.22;;;21.10;58.90;;;;;;5052505;28;20131;-32
2023/06/15 00:31:47;;;;;;;3.97;2.40;;;21.40;58.90;;;;;;5052383;28;20055;-32
2023/06/15 00:34:13;;;;;;;3.72;2.30;;;21.10;70.30;;;;;;5051421;28;20128;-32
2023/06/15 00:36:40;;;;;;;6.05;2.42;;;20.70;69.60;;;;;;5050776;28;20045;-32
2023/06/15 00:39:07;;;;;;;3.85;2.53;;;;;;;;;;5051629;28;20171;-32
2023/06/15 00:41:41;;;;;;;5.22;2.20;;;20.10;70.00;;;;;;5052112;28;20045;-33
2023/06/15 00:44:08;;;;;;;4.80;2.67;;;20.00;69.00;;;;;;5052160;28;20049;-33
2023/06/15 00:46:36;;;;;;;6.43;2.55;;;20.70;52.10;;;;;;5051984;28;20127;-31
2023/06/15 00:49:03;;;;;;;4.50;2.50;;;;;;;;;;5052106;28;20053;-31
2023/06/15 00:51:30;;;;;;;3.78;2.33;;;20.50;69.40;;;;;;5042627;28;20129;-32
2023/06/15 00:53:57;;;;;;;4.88;2.40;;;;;;;;;;5050483;28;20418;-32
2023/06/15 00:56:29;;;;;;;4.40;2.30;;;21.70;70.10;;;;;;5052119;28;20386;-32
2023/06/15 00:58:55;;;;;;;4.15;2.28;;;20.70;59.40;;;;;;5052056;28;20132;-32
2023/06/15 01:01:22;;;;;;;4.45;2.30;;;;;;;;;;5043252;28;20045;-32
2023/06/15 01:03:50;;;;;;;4.32;2.50;;;20.70;52.30;;;;;;5046989;28;20124;-32
2023/06/15 01:06:19;;;;;;;3.50;2.40;;;;;;;;;;5051604;28;20064;-32
2023/06/15 01:08:47;;;;;;;3.47;2.10;;;21.10;70.00;;;;;;5051716;28;20053;-32
2023/06/15 01:11:14;;;;;;;3.95;2.50;;;20.70;53.70;;;;;;5052034;28;20128;-32
2023/06/15 01:13:40;;;;;;;4.28;2.20;;;20.80;70.00;;;;;;5051407;28;20131;-32
2023/06/15 01:16:08;;;;;;;9.50;2.60;;;20.60;70.30;;;;;;5051739;28;20124;-32
2023/06/15 01:18:36;;;;;;;4.63;2.65;;;20.30;69.90;;;;;;5051552;28;20131;-32
2023/06/15 01:21:06;;;;;;;4.57;2.55;;;;;;;;;;5051569;28;20071;-32
2023/06/15 01:23:37;;;;;;;5.78;2.40;;;21.00;70.30;;;;;;5051520;28;20064;-33
2023/06/15 01:26:09;;;;;;;4.95;2.58;;;20.80;70.20;;;;;;5051698;28;20132;-33
2023/06/15 01:28:40;;;;;;;5.68;2.80;;;20.30;70.10;;;;;;5051821;28;20041;-32
2023/06/15 01:31:06;;;;;;;4.82;2.45;;;20.60;65.80;;;;;;5051702;28;20579;-32
2023/06/15 01:33:33;;;;;;;4.53;2.53;;;20.70;70.30;;;;;;5051026;28;20136;-32
2023/06/15 01:36:00;;;;;;;3.05;2.20;;;21.10;60.40;;;;;;5051071;28;20049;-32
2023/06/15 01:38:28;;;;;;;4.93;2.40;;;20.10;52.60;;;;;;5051521;28;20045;-32
2023/06/15 01:40:55;;;;;;;3.90;2.55;;;;;;;;;;5051343;28;20468;-33
2023/06/15 01:43:25;;;;;;;6.95;2.60;;;20.30;70.30;;;;;;5051118;28;20132;-32
2023/06/15 01:45:52;;;;;;;6.32;2.67;;;;;;;;;;5051480;28;20080;-32
2023/06/15 01:48:19;;;;;;;5.20;2.20;;;;;;;;;;5051380;28;20379;-31
2023/06/15 01:50:45;;;;;;;5.15;2.38;;;20.50;70.30;;;;;;5049423;28;20048;-32
2023/06/15 01:53:12;;;;;;;3.55;2.30;;;;;;;;;;5050906;28;20510;-32
2023/06/15 01:55:39;;;;;;;3.83;2.17;;;20.70;71.20;;;;;;5051384;28;20514;-32
2023/06/15 01:58:06;;;;;;;3.92;2.35;;;20.30;70.90;;;;;;5038536;28;20142;-32
2023/06/15 02:00:34;;;;;;;6.43;2.53;;;20.30;52.90;;;;;;5031103;28;20046;-31
2023/06/15 02:03:01;;;;;;;5.80;2.70;;;21.10;57.90;;;;;;5031111;28;20599;-32
2023/06/15 02:05:28;;;;;;;4.35;2.60;;;20.50;70.80;;;;;;5035356;28;20509;-32
2023/06/15 02:07:56;;;;;;;4.05;2.63;;;;;;;;;;5051581;28;20079;-31
2023/06/15 02:10:23;;;;;;;6.28;2.40;;;20.50;71.40;;;;;;5051238;28;20131;-32
2023/06/15 02:12:49;;;;;;;6.65;2.55;;;20.60;60.90;;;;;;5050920;28;20049;-32
2023/06/15 02:15:16;;;;;;;3.42;2.50;;;19.90;70.70;;;;;;5051218;28;20436;-33
2023/06/15 02:17:44;;;;;;;5.03;2.53;;;19.10;70.80;;;;;;5051197;28;20055;-32
2023/06/15 02:20:12;;;;;;;3.67;2.30;;;19.90;71.10;;;;;;5053957;28;20596;-33
2023/06/15 02:22:38;;;;;;;4.13;2.70;;;19.70;71.60;;;;;;5054223;28;20421;-32
2023/06/15 02:25:07;;;;;;;3.45;2.10;;;20.20;71.20;;;;;;5054910;28;20128;-32
2023/06/15 02:27:34;;;;;;;6.00;2.70;;;;;;;;;;5054550;28;20048;-32
2023/06/15 02:30:01;;;;;;;4.22;2.55;;;20.10;71.70;;;;;;5054551;28;20136;-32
2023/06/15 02:32:34;;;;;;;4.53;2.42;;;20.70;71.60;;;;;;5054460;28;20132;-32
2023/06/15 02:35:03;;;;;;;5.28;2.60;;;20.20;71.30;;;;;;5054477;28;20045;-32
2023/06/15 02:37:30;;;;;;;4.05;2.25;;;20.40;69.40;;;;;;5053352;28;20048;-32
2023/06/15 02:39:56;;;;;;;3.58;2.42;;;19.90;58.20;;;;;;5054231;28;20498;-32
2023/06/15 02:42:23;;;;;;;5.70;3.00;;;20.30;72.20;;;;;;5054092;28;20128;-32
2023/06/15 02:44:51;;;;;;;4.22;2.70;;;20.30;68.20;;;;;;5054428;28;20071;-32
2023/06/15 02:47:17;;;;;;;6.10;3.08;;;20.50;61.10;;;;;;5054230;28;20128;-33
2023/06/15 02:49:44;;;;;;;4.55;2.90;;;20.90;71.80;;;;;;5049476;28;20124;-32
2023/06/15 02:52:12;;;;;;;5.03;2.70;;;19.90;53.60;;;;;;5034064;28;20084;-32
2023/06/15 02:54:39;;;;;;;5.00;3.60;;;19.10;65.90;;;;;;5037100;28;20053;-32
2023/06/15 02:57:07;;;;;;;5.65;3.10;;;19.60;71.70;;;;;;5034184;28;20111;-32
2023/06/15 02:59:34;;;;;;;6.22;2.97;;;20.20;66.80;;;;;;5034262;28;20050;-32
2023/06/15 03:02:01;;;;;;;4.55;2.90;;;20.80;72.00;;;;;;5037323;28;20086;-33
2023/06/15 03:04:28;;;;;;;6.90;3.10;;;19.60;71.40;;;;;;5053418;28;20052;-32
2023/06/15 03:06:56;;;;;;;3.40;2.53;;;;;;;;;;5053920;28;20080;-32
2023/06/15 03:09:24;;;;;;;7.38;3.00;;;20.30;72.60;;;;;;5053938;28;20079;-32
2023/06/15 03:11:51;;;;;;;6.32;3.00;;;;;;;;;;5054085;28;20136;-32
2023/06/15 03:14:19;;;;;;;4.50;2.70;;;;;;;;;;5053591;28;20456;-32
2023/06/15 03:16:47;;;;;;;5.50;3.10;;;19.60;71.50;;;;;;5053887;28;20052;-32
2023/06/15 03:19:15;;;;;;;4.65;3.05;;;20.00;71.80;;;;;;5053470;28;20045;-32
2023/06/15 03:21:42;;;;;;;4.75;3.30;;;;;;;;;;5053713;28;20049;-31
2023/06/15 03:24:09;;;;;;;4.20;2.90;;;19.90;72.20;;;;;;5053656;28;20048;-32
2023/06/15 03:26:37;;;;;;;6.30;2.83;;;19.80;54.00;;;;;;5053658;28;20053;-31
2023/06/15 03:29:04;;;;;;;7.72;3.10;;;20.00;65.80;;;;;;5053681;28;20132;-32
2023/06/15 03:31:33;;;;;;;4.20;2.88;;;20.70;72.60;;;;;;5053527;28;20135;-32
2023/06/15 03:34:00;;;;;;;6.22;3.10;;;;;;;;;;5052734;28;20059;-30
2023/06/15 03:36:29;;;;;;;3.75;2.95;;;20.10;72.40;;;;;;5052716;28;20071;-32
2023/06/15 03:38:57;;;;;;;5.20;2.70;;;19.80;54.00;;;;;;5053289;28;20099;-32
2023/06/15 03:41:23;;;;;;;6.03;3.00;;;19.50;72.60;;;;;;5053271;28;20063;-32
2023/06/15 03:43:51;;;;;;;3.67;2.92;;;19.70;54.00;;;;;;5052959;28;20585;-31
2023/06/15 03:46:19;;;;;;;4.18;2.80;;;;;;;;;;5052996;28;20136;-31
2023/06/15 03:48:46;;;;;;;3.20;2.80;;;20.00;72.20;;;;;;5052846;28;20057;-32
2023/06/15 03:51:13;;;;;;;4.53;3.00;;;;;;;;;;5051856;28;20057;-32
2023/06/15 03:53:42;;;;;;;4.63;2.88;;;19.90;72.10;;;;;;5053065;28;20049;-32
2023/06/15 03:56:09;;;;;;;7.43;3.40;;;20.10;57.40;;;;;;5053044;28;20045;-32
2023/06/15 03:58:36;;;;;;;3.85;2.78;;;19.90;72.50;;;;;;5053072;28;20132;-32
2023/06/15 04:01:05;;;;;;;5.80;3.20;;;19.90;72.10;;;;;;5052672;28;20053;-32
2023/06/15 04:03:34;;;;;;;5.65;2.92;;;19.80;72.50;;;;;;5052338;28;20060;-32
2023/06/15 04:06:02;;;;;;;4.63;2.90;;;;;;;;;;5052875;28;20057;-31
2023/06/15 04:08:29;;;;;;;5.95;2.95;;;19.70;66.40;;;;;;5052655;28;20064;-32
2023/06/15 04:10:56;;;;;;;5.80;3.13;;;19.60;72.10;;;;;;5052786;28;20493;-32
2023/06/15 04:13:23;;;;;;;7.38;3.00;;;20.60;60.00;;;;;;5052514;28;20509;-32
2023/06/15 04:15:50;;;;;;;4.40;3.10;;;19.70;72.30;;;;;;5052649;28;20055;-33
2023/06/15 04:18:18;;;;;;;4.78;3.15;;;18.40;71.70;;;;;;5052632;28;20045;-32
2023/06/15 04:20:45;;;;;;;3.67;2.75;;;19.50;72.70;;;;;;5051414;28;20072;-32
2023/06/15 04:23:11;;;;;;;7.40;3.38;;;20.10;64.20;;;;;;5051387;28;20504;-32
2023/06/15 04:25:40;;;;;;;7.28;2.72;;;19.40;72.20;;;;;;5052231;28;20136;-32
2023/06/15 04:28:10;;;;;;;3.95;2.60;;;19.70;72.50;;;;;;5051800;28;20494;-32
2023/06/15 04:30:37;;;;;;;5.35;3.13;;;20.60;73.30;;;;;;5051307;28;20041;-32
2023/06/15 04:33:04;;;;;;;5.95;3.00;;;18.50;71.80;;;;;;5050855;28;20060;-32
2023/06/15 04:35:34;;;;;;;4.60;2.80;;;19.60;73.20;;;;;;5052008;28;20056;-32
2023/06/15 04:38:04;;;;;;;4.60;2.80;;;19.70;72.50;;;;;;5048347;28;20048;-32
2023/06/15 04:40:31;;;;;;;7.18;3.03;;;20.20;72.60;;;;;;5051243;28;20486;-32
2023/06/15 04:42:58;;;;;;;4.55;2.90;;;;;;;;;;5050980;28;20453;-32
2023/06/15 04:45:25;;;;;;;4.75;2.70;;;19.80;72.40;;;;;;5050134;28;20103;-33
2023/06/15 04:47:52;;;;;;;4.75;2.97;;;;;;;;;;5050481;28;20119;-32
2023/06/15 04:50:21;;;;;;;5.47;3.38;;;20.00;73.10;;;;;;5050527;28;20045;-32
2023/06/15 04:52:49;;;;;;;6.38;2.90;;;18.60;72.00;;;;;;5051457;28;20053;-32
2023/06/15 04:55:16;;;;;;;5.93;3.17;;;19.40;72.00;;;;;;5051957;28;20127;-32
2023/06/15 04:57:43;;;;;;;4.10;2.97;;;19.30;57.90;;;;;;5051236;28;20055;-33
2023/06/15 05:00:13;;;;;;;7.07;3.10;;;19.70;54.30;;;;;;5048945;28;20608;-31
2023/06/15 05:02:40;;;;;;;4.50;2.97;;;19.60;72.20;;;;;;5051279;28;20098;-33
2023/06/15 05:05:07;;;;;;;5.72;3.20;;;;;;;;;;5051422;28;20087;-31
2023/06/15 05:07:34;;;;;;;4.70;3.28;;;19.80;72.40;;;;;;5051397;28;20053;-33
2023/06/15 05:10:03;;;;;;;7.13;3.60;;;19.80;73.20;;;;;;5050918;28;20068;-33
2023/06/15 05:12:30;;;;;;;5.95;3.13;;;19.00;72.70;;;;;;5050838;28;20635;-33
2023/06/15 05:14:57;;;;;;;6.40;2.90;;;;;;;;;;5052010;28;20071;-32
2023/06/15 05:17:24;;;;;;;4.35;3.08;;;19.80;72.60;;;;;;5051838;28;20071;-33
2023/06/15 05:19:51;;;;;;;3.88;2.65;;;;;;;;;;5051312;28;20641;-33
2023/06/15 05:22:18;;;;;;;4.55;2.95;;;19.70;68.90;;;;;;5051054;28;20057;-33
2023/06/15 05:24:45;;;;;;;4.70;2.80;;;;;;;;;;5051414;28;20132;-33
2023/06/15 05:27:13;;;;;;;4.15;2.80;;;19.80;54.40;;;;;;5051437;28;20055;-34
2023/06/15 05:29:40;;;;;;;4.25;2.90;;;18.60;71.50;;;;;;5051465;28;20056;-33
2023/06/15 05:32:07;;;;;;;3.17;2.75;;;19.70;72.90;;;;;;5051449;28;20049;-33
2023/06/15 05:34:35;;;;;;;4.25;2.97;;;;;;;;;;5051003;28;20757;-33
2023/06/15 05:37:02;;;;;;;5.38;2.80;;;;;;;;;;5051210;28;20099;-32
2023/06/15 05:39:28;;;;;;;5.32;2.97;;;19.50;72.30;;;;;;5051489;28;20128;-33
2023/06/15 05:41:55;;;;;;;7.15;3.40;;;;;;;;;;5053674;28;20059;-33
2023/06/15 05:44:23;;;;;;;3.38;2.53;;;19.70;67.30;;;;;;5056739;28;20053;-33
2023/06/15 05:46:52;;;;;;;4.90;2.58;;;20.00;64.10;;;;;;5051134;28;20137;-33
2023/06/15 05:49:19;;;;;;;4.88;2.63;;;20.00;72.50;;;;;;5050261;28;20049;-33
2023/06/15 05:51:46;;;;;;;5.18;2.53;;;;;;;;;;5031451;28;20058;-30
2023/06/15 05:54:13;;;;;;;3.63;2.78;;;19.50;57.10;;;;;;5032802;28;20136;-33
2023/06/15 05:56:40;;;;;;;3.33;2.53;;;20.40;72.90;;;;;;5035164;28;20054;-33
2023/06/15 05:59:07;;;;;;;4.20;2.85;;;20.00;72.20;;;;;;5035227;28;20081;-33
2023/06/15 06:01:35;;;;;;;3.70;2.72;;;20.00;72.60;;;;;;5046491;28;20056;-33
2023/06/15 06:04:02;;;;;;;5.15;2.70;;;20.70;72.20;;;;;;5054746;28;20128;-33
2023/06/15 06:06:29;;;;;;;3.97;2.80;;;;;;;;;;5054973;28;20049;-32
2023/06/15 06:08:55;;;;;;;3.42;2.70;;;19.90;71.60;;;;;;5054794;28;20120;-33
2023/06/15 06:11:22;;;;;;;3.35;2.45;;;;;;;;;;5054983;28;20048;-33
2023/06/15 06:13:49;;;;;;;4.32;2.53;;;19.50;60.40;;;;;;5054728;28;20458;-33
2023/06/15 06:16:16;;;;;;;3.65;2.58;;;18.90;70.80;;;;;;5054581;28;20132;-33
2023/06/15 06:18:44;;;;;;;3.75;2.50;;;20.10;53.50;;;;;;5054637;28;20049;-32
2023/06/15 06:21:11;;;;;;;4.35;2.58;;;20.90;71.70;;;;;;5054831;28;20045;-33
2023/06/15 06:23:38;;;;;;;3.50;2.53;;;18.90;62.60;;;;;;5054908;28;20132;-33
2023/06/15 06:26:05;;;;;;;5.78;2.97;;;20.10;60.00;;;;;;5054386;28;20128;-33
2023/06/15 06:28:32;;;;;;;6.63;2.72;;;20.40;71.00;;;;;;5054504;28;20131;-33
2023/06/15 06:30:59;;;;;;;5.20;2.85;;;20.30;71.10;;;;;;5054696;28;20051;-33
2023/06/15 06:33:26;;;;;;;5.00;3.00;;;;;;;;;;5053887;28;20053;-32
2023/06/15 06:35:54;;;;;;;4.55;2.90;;;20.20;71.80;;;;;;5053907;28;20059;-33
2023/06/15 06:38:20;;;;;;;6.22;2.80;;;20.40;71.10;;;;;;5050150;28;20076;-33
2023/06/15 06:40:48;;;;;;;4.63;2.60;;;;;;;;;;5047450;28;20045;-33
2023/06/15 06:43:14;;;;;;;4.30;2.50;;;20.20;59.90;;;;;;5043361;28;20045;-33
2023/06/15 06:45:41;;;;;;;3.47;2.70;;;19.80;71.00;;;;;;5043561;28;20123;-33
2023/06/15 06:48:08;;;;;;;3.63;2.78;;;;;;;;;;5041185;28;20413;-33
2023/06/15 06:50:35;;;;;;;4.35;2.90;;;20.70;68.10;;;;;;5039968;28;20049;-32
2023/06/15 06:53:03;;;;;;;5.40;2.80;;;20.00;70.50;;;;;;5034130;28;20049;-32
2023/06/15 06:55:30;;;;;;;5.30;3.10;;;;;;;;;;5034155;28;20049;-31
2023/06/15 06:58:00;;;;;;;4.60;2.95;;;20.20;71.30;;;;;;5034238;28;20462;-32
2023/06/15 07:00:26;;;;;;;9.13;3.13;;;21.00;65.50;;;;;;5034087;28;20041;-32
2023/06/15 07:02:53;;;;;;;6.47;3.17;;;20.20;71.20;;;;;;5033813;28;20057;-32
2023/06/15 07:05:20;;;;;;;6.13;2.80;;;;;;;;;;5033414;28;20613;-33
2023/06/15 07:07:48;;;;;;;5.43;2.88;;;20.00;70.60;;;;;;5047648;28;20052;-32
2023/06/15 07:10:16;;;;;;;5.68;3.53;;;20.50;53.00;;;;;;5054162;28;20045;-31
2023/06/15 07:12:43;;;;;;;7.32;3.63;;;;;;;;;;5053579;28;20053;-32
2023/06/15 07:15:10;;;;;;;5.35;3.22;;;20.80;70.90;;;;;;5053751;28;20128;-32
2023/06/15 07:17:37;;;;;;;5.60;3.13;;;20.80;63.40;;;;;;5053795;28;20131;-32
2023/06/15 07:20:05;;;;;;;7.18;2.95;;;20.60;70.70;;;;;;5053536;28;20080;-32
2023/06/15 07:22:32;;;;;;;5.03;2.95;;;21.20;70.60;;;;;;5053232;28;20128;-32
2023/06/15 07:24:58;;;;;;;7.95;3.15;;;20.20;70.00;;;;;;5053632;28;20124;-32
2023/06/15 07:27:27;;;;;;;10.55;3.33;;;20.10;56.30;;;;;;5053636;28;20055;-32
2023/06/15 07:29:54;;;;;;;6.38;3.03;;;19.90;69.70;;;;;;5053159;28;20041;-32
2023/06/15 07:32:21;;;;;;;5.25;3.28;;;;;;;;;;5044522;28;20052;-32
2023/06/15 07:34:48;;;;;;;5.93;2.88;;;20.90;70.00;;;;;;5047413;28;20060;-32
2023/06/15 07:37:15;;;;;;;4.30;3.10;;;20.50;70.60;;;;;;5042226;28;20054;-32
2023/06/15 07:39:42;;;;;;;7.05;3.38;;;20.90;65.20;;;;;;5046880;28;20045;-33
2023/06/15 07:42:09;;;;;;;4.35;3.05;;;;;;;;;;5045511;28;20049;-32
2023/06/15 07:44:37;;;;;;;6.63;3.00;;;20.40;55.70;;;;;;5042644;28;20053;-32
2023/06/15 07:47:06;;;;;;;5.18;2.90;;;21.80;59.40;;;;;;5036730;28;20052;-32
2023/06/15 07:49:33;;;;;;;5.78;3.38;;;21.10;70.10;;;;;;5036352;28;20041;-32
2023/06/15 07:51:59;;;;;;;5.22;2.60;;;19.80;69.40;;;;;;5043208;28;20128;-33
2023/06/15 07:54:26;;;;;;;5.07;3.40;;;;;;;;;;5051081;28;20049;-32
2023/06/15 07:56:53;;;;;;;4.00;2.92;;;21.00;60.90;;;;;;5050757;28;20056;-32
2023/06/15 07:59:20;;;;;;;8.43;3.17;;;;;;;;;;5052186;28;20045;-32
2023/06/15 08:01:48;;;;;;;3.97;3.00;;;20.60;69.40;;;;;;5050598;28;20094;-32
2023/06/15 08:04:15;;;;;;;4.13;2.75;;;20.70;63.70;;;;;;5047164;28;20073;-32
2023/06/15 08:06:42;;;;;;;5.97;2.97;;;;;;;;;;5032970;28;20072;-32
2023/06/15 08:09:11;;;;;;;5.65;3.00;;;21.80;70.60;;;;;;5032517;28;20052;-33
2023/06/15 08:11:38;;;;;;;4.88;2.75;;;21.40;69.70;;;;;;5039935;28;20068;-32
2023/06/15 08:14:05;;;;;;;5.43;2.70;;;20.70;57.70;;;;;;5052008;28;20124;-32
2023/06/15 08:16:31;;;;;;;8.18;3.08;;;21.50;60.30;;;;;;5052013;28;20045;-32
2023/06/15 08:18:59;;;;;;;4.82;3.08;;;21.40;52.00;;;;;;5052049;28;20450;-31
2023/06/15 08:21:27;;;;;;;5.45;2.80;;;;;;;;;;5052332;28;20144;-33
2023/06/15 08:23:53;;;;;;;7.90;3.22;;;20.40;68.40;;;;;;5052222;28;20140;-32
2023/06/15 08:26:20;;;;;;;2.78;2.47;;;21.50;69.40;;;;;;5052485;28;20128;-32
2023/06/15 08:28:47;;;;;;;5.63;2.75;;;;;;;;;;5049847;28;20127;-32
2023/06/15 08:31:14;;;;;;;7.43;3.17;;;20.70;68.20;;;;;;5045726;28;20055;-32
2023/06/15 08:33:40;;;;;;;6.60;2.80;;;21.40;69.50;;;;;;5051790;28;20632;-33
2023/06/15 08:36:09;;;;;;;5.68;3.10;;;21.10;60.70;;;;;;5051703;28;20154;-32
2023/06/15 08:38:35;;;;;;;4.35;2.47;;;22.80;62.20;;;;;;5052172;28;20124;-33
2023/06/15 08:41:02;;;;;;;5.10;2.80;;;;;;;;;;5051533;28;20051;-33
2023/06/15 08:43:29;;;;;;;3.67;2.70;;;;;;;;;;5051735;28;20061;-32
2023/06/15 08:45:57;;;;;;;3.00;2.38;;;21.50;68.20;;;;;;5051550;28;20132;-33
2023/06/15 08:48:24;;;;;;;5.00;2.40;;;;;;;;;;5052029;28;20053;-33
2023/06/15 08:50:51;;;;;;;4.13;2.70;;;;;;;;;;5052003;28;20118;-32
2023/06/15 08:53:20;;;;;;;3.15;2.28;;;22.50;69.30;;;;;;5051624;28;20084;-32
2023/06/15 08:55:47;;;;;;;2.92;2.47;;;22.20;68.10;;;;;;5051853;28;20494;-33
2023/06/15 08:58:14;;;;;;;7.70;2.75;;;22.10;68.80;;;;;;5051927;28;20049;-32
2023/06/15 09:00:41;;;;;;;3.42;2.60;;;22.00;68.00;;;;;;5052190;28;20133;-32
2023/06/15 09:03:08;;;;;;;4.68;2.70;;;21.00;67.20;;;;;;5051573;28;20049;-31
2023/06/15 09:05:36;;;;;;;5.75;2.80;;;22.30;60.20;;;;;;5038378;28;20120;-31
2023/06/15 09:08:03;;;;;;;6.57;2.97;;;22.00;67.70;;;;;;5032020;28;20045;-31
2023/06/15 09:10:31;;;;;;;5.40;2.38;;;22.70;67.30;;;;;;5031817;28;20046;-31
2023/06/15 09:12:59;;;;;;;3.42;2.55;;;22.30;52.40;;;;;;5031719;28;20045;-31
2023/06/15 09:15:26;;;;;;;3.50;2.60;;;21.90;67.50;;;;;;5031512;28;20561;-31
2023/06/15 09:17:54;;;;;;;7.05;3.05;;;;;;;;;;5031958;28;20053;-33
2023/06/15 09:20:21;;;;;;;3.35;2.60;;;22.30;49.70;;;;;;5051041;28;20045;-31
2023/06/15 09:22:48;;;;;;;3.78;2.78;;;23.20;67.50;;;;;;5051336;28;20497;-31
2023/06/15 09:25:16;;;;;;;7.70;2.70;;;22.40;49.50;;;;;;5051709;28;20119;-33
2023/06/15 09:27:53;;;;;;;4.90;2.60;;;22.40;49.30;;;;;;5060284;28;20052;-32
2023/06/15 09:30:20;;;;;;;7.50;2.88;;;23.00;60.70;;;;;;5070031;28;20049;-31
2023/06/15 09:32:47;;;;;;;6.65;3.40;;;;;;;;;;5075303;28;20131;-32
2023/06/15 09:35:14;;;;;;;8.20;2.67;;;22.40;66.80;;;;;;5070554;28;20123;-31
2023/06/15 09:37:41;;;;;;;5.47;2.40;;;;;;;;;;5046245;28;20121;-33
2023/06/15 09:40:10;;;;;;;5.95;2.40;;;22.20;65.70;;;;;;5053762;28;20048;-31
2023/06/15 09:42:37;;;;;;;5.05;2.65;;;;;;;;;;5054588;28;20501;-32
2023/06/15 09:45:07;;;;;;;5.65;2.97;;;22.70;66.10;;;;;;5054839;28;20494;-31
2023/06/15 09:47:33;;;;;;;4.65;2.65;;;22.20;60.70;;;;;;5055192;28;20080;-31
2023/06/15 09:50:00;;;;;;;6.88;2.67;;;22.60;54.40;;;;;;5054549;28;20045;-31
2023/06/15 09:52:27;;;;;;;6.43;2.78;;;23.40;66.00;;;;;;5053601;28;20047;-31
2023/06/15 09:54:54;;;;;;;4.60;2.53;;;22.70;62.40;;;;;;5053418;28;20063;-31
2023/06/15 09:57:21;;;;;;;5.95;2.70;;;22.10;65.30;;;;;;5054389;28;20040;-30
2023/06/15 09:59:48;;;;;;;3.05;2.47;;;;;;;;;;5054631;28;20087;-32
2023/06/15 10:02:17;;;;;;;3.72;2.50;;;23.30;49.20;;;;;;5054101;28;20524;-31
2023/06/15 10:04:44;;;;;;;4.38;2.50;;;23.40;66.20;;;;;;5054821;28;20055;-31
2023/06/15 10:07:12;;;;;;;4.32;2.65;;;23.60;65.80;;;;;;5054304;28;20129;-31
2023/06/15 10:09:44;;;;;;;3.50;2.58;;;22.90;65.80;;;;;;5054395;28;20044;-31
2023/06/15 10:12:13;;;;;;;4.53;2.58;;;22.50;65.10;;;;;;5053823;28;20127;-31
2023/06/15 10:14:45;;;;;;;5.70;3.17;;;22.50;48.10;;;;;;5052127;28;20417;-32
2023/06/15 10:17:12;;;;;;;4.15;2.85;;;21.50;52.50;;;;;;5043074;28;20412;-31
2023/06/15 10:19:43;;;;;;;4.75;2.75;;;22.60;65.00;;;;;;5046421;28;20059;-31
2023/06/15 10:22:12;;;;;;;6.00;2.58;;;22.50;47.90;;;;;;5054297;28;20095;-30
2023/06/15 10:24:39;;;;;;;3.85;2.42;;;22.30;65.30;;;;;;5051521;28;20586;-30
2023/06/15 10:27:06;;;;;;;4.75;2.80;;;22.30;64.90;;;;;;5053831;28;20047;-31
2023/06/15 10:29:37;;;;;;;3.67;2.80;;;21.70;64.40;;;;;;5051290;28;20087;-31
2023/06/15 10:32:08;;;;;;;4.72;2.70;;;23.00;51.30;;;;;;5054580;28;20049;-32
2023/06/15 10:34:38;;;;;;;4.05;2.60;;;22.60;47.30;;;;;;5054283;28;20053;-32
2023/06/15 10:37:08;;;;;;;3.70;2.65;;;22.60;47.10;;;;;;5045662;28;20498;-32
2023/06/15 10:39:36;;;;;;;3.80;2.78;;;22.50;49.40;;;;;;5052801;28;20140;-31
2023/06/15 10:42:07;;;;;;;3.13;2.47;;;22.60;46.60;;;;;;5050806;28;20434;-32
2023/06/15 10:44:33;;;;;;;7.10;2.95;;;22.50;64.00;;;;;;5053396;28;20432;-33
2023/06/15 10:47:07;;;;;;;5.03;3.10;;;22.30;63.80;;;;;;5053826;28;20055;-34
2023/06/15 10:49:34;;;;;;;4.93;2.63;;;22.50;54.00;;;;;;5050448;28;20053;-33
2023/06/15 10:52:01;;;;;;;4.50;2.80;;;;;;;;;;5034132;28;20190;-34
2023/06/15 10:54:29;;;;;;;4.47;2.67;;;23.00;63.40;;;;;;5034037;28;20056;-33
2023/06/15 10:56:57;;;;;;;5.75;3.10;;;21.70;45.30;;;;;;5034252;28;20053;-34
2023/06/15 10:59:41;;;;;;;4.40;2.60;;;22.60;52.00;;;;;;5040650;28;20098;-33
2023/06/15 11:02:46;;;;;;;5.80;2.63;;;22.70;45.90;;;;;;5053562;28;20545;-33
2023/06/15 11:05:14;;;;;;;5.05;2.33;;;21.70;62.60;;;;;;5054109;28;20049;-33
2023/06/15 11:07:43;;;;;;;4.10;2.40;;;22.70;63.20;;;;;;5036017;28;20059;-34
2023/06/15 11:10:14;;;;;;;6.20;2.50;;;22.70;46.10;;;;;;5053870;28;20175;-32
2023/06/15 11:12:41;;;;;;;3.53;2.60;;;22.70;46.10;;;;;;5052794;28;20056;-33
2023/06/15 11:15:09;;;;;;;3.22;2.40;;;22.80;46.20;;;;;;5053549;28;20131;-33
2023/06/15 11:17:54;;;;;;;6.10;2.60;;;22.80;46.30;;;;;;5053206;28;20041;-33
2023/06/15 11:20:59;;;;;;;2.83;2.35;;;22.80;46.30;;;;;;5049988;28;20420;-33
2023/06/15 11:23:27;;;;;;;3.28;2.38;;;;;;;;;;5049208;28;20053;-33
2023/06/15 11:25:55;;;;;;;5.18;2.63;;;22.90;63.20;;;;;;5053039;28;20171;-33
2023/06/15 11:28:24;;;;;;;5.45;2.58;;;22.80;45.80;;;;;;5053155;28;20145;-32
2023/06/15 11:30:51;;;;;;;4.13;2.47;;;23.80;63.40;;;;;;5053217;28;20444;-33
2023/06/15 11:33:25;;;;;;;5.35;2.55;;;22.90;62.70;;;;;;5050439;28;20045;-34
2023/06/15 11:35:53;;;;;;;4.65;2.90;;;;;;;;;;5052567;28;20049;-34
2023/06/15 11:38:22;;;;;;;3.63;2.55;;;22.90;45.20;;;;;;5053646;28;20135;-34
2023/06/15 11:40:49;;;;;;;4.32;2.40;;;;;;;;;;5053170;28;20128;-32
2023/06/15 11:43:17;;;;;;;7.93;2.50;;;23.80;62.50;;;;;;5052779;28;20076;-33
2023/06/15 11:45:46;;;;;;;4.88;2.60;;;22.90;44.90;;;;;;5053190;28;20132;-33
2023/06/15 11:48:13;;;;;;;3.55;2.38;;;22.90;44.80;;;;;;5053049;28;20056;-32
2023/06/15 11:50:42;;;;;;;4.10;2.70;;;22.70;62.20;;;;;;5050615;28;20052;-34
2023/06/15 11:53:14;;;;;;;3.50;2.65;;;24.20;62.70;;;;;;5052122;28;20132;-34
2023/06/15 11:55:44;;;;;;;2.75;2.20;;;23.60;63.40;;;;;;5053313;28;20123;-33
2023/06/15 11:58:11;;;;;;;3.63;2.55;;;;;;;;;;5052786;28;20576;-32
2023/06/15 12:00:39;;;;;;;3.22;2.30;;;22.50;61.80;;;;;;5052691;28;20482;-33
2023/06/15 12:03:10;;;;;;;4.47;2.58;;;23.30;46.90;;;;;;5052656;28;20128;-33
2023/06/15 12:05:37;;;;;;;3.85;2.45;;;22.90;61.80;;;;;;5052919;28;20049;-33
2023/06/15 12:08:04;;;;;;;4.45;2.40;;;23.00;44.60;;;;;;5052489;28;20466;-32
2023/06/15 12:10:31;;;;;;;3.70;2.67;;;23.10;62.50;;;;;;5052920;28;20044;-34
2023/06/15 12:12:58;;;;;;;2.65;2.28;;;23.00;44.40;;;;;;5052439;28;20075;-33
2023/06/15 12:15:25;;;;;;;4.38;2.58;;;22.80;61.50;;;;;;5052300;28;20059;-34
2023/06/15 12:17:54;;;;;;;5.22;2.60;;;23.10;44.40;;;;;;5062734;28;20137;-32
2023/06/15 12:20:22;;;;;;;3.28;2.35;;;23.70;62.10;;;;;;5072266;28;20490;-33
2023/06/15 12:22:49;;;;;;;5.68;2.88;;;23.30;61.70;;;;;;5072276;28;20052;-34
2023/06/15 12:25:16;;;;;;;6.00;2.80;;;23.50;61.50;;;;;;5055793;28;20049;-34
2023/06/15 12:27:44;;;;;;;5.80;2.60;;;22.90;51.50;;;;;;5052016;28;20136;-33
2023/06/15 12:30:12;;;;;;;5.28;2.42;;;23.20;61.90;;;;;;5052626;28;20087;-33
2023/06/15 12:32:43;;;;;;;4.47;2.42;;;22.30;57.30;;;;;;5052335;28;20454;-33
2023/06/15 12:38:03;;;;;;;3.85;2.90;;;23.10;61.70;;;;;;5109215;27;20373;-32
2023/06/15 12:40:29;;;;;;;4.78;2.70;;;22.30;60.50;;;;;;5108961;28;20139;-31
2023/06/15 12:42:58;;;;;;;6.75;2.60;;;23.10;61.80;;;;;;5101658;28;20597;-32
2023/06/15 12:45:25;;;;;;;3.25;2.78;;;;;;;;;;5099555;28;20063;-32
2023/06/15 12:47:52;;;;;;;6.43;2.90;;;23.30;61.60;;;;;;5092157;28;20040;-32
2023/06/15 12:50:19;;;;;;;5.30;2.50;;;;;;;;;;5103806;28;20161;-31
2023/06/15 12:52:46;;;;;;;3.85;2.40;;;23.20;60.90;;;;;;5091398;28;20401;-32
2023/06/15 12:55:15;;;;;;;4.78;2.50;;;23.30;43.90;;;;;;5089438;28;20052;-30
2023/06/15 12:57:42;;;;;;;3.13;2.83;;;23.10;61.00;;;;;;5093858;28;20072;-31
2023/06/15 13:00:10;;;;;;;6.80;2.70;;;23.30;44.00;;;;;;5097632;28;20123;-30
2023/06/15 13:02:37;;;;;;;4.22;2.50;;;23.00;61.60;;;;;;5103045;28;20217;-31
2023/06/15 13:05:04;;;;;;;4.07;2.83;;;23.30;44.10;;;;;;5102893;28;20044;-31
2023/06/15 13:07:32;;;;;;;3.17;2.55;;;22.80;61.30;;;;;;5095165;28;20039;-38
2023/06/15 13:09:59;;;;;;;4.95;3.05;;;22.60;60.80;;;;;;5095533;28;20048;-40
2023/06/15 13:12:27;;;;;;;4.32;2.60;;;24.50;51.50;;;;;;5097298;28;20123;-36
2023/06/15 13:14:54;;;;;;;5.70;2.72;;;23.50;54.20;;;;;;5105982;28;20074;-39